createdAt,value
2019-05-03T00:01:12.806Z,3.00
2019-05-03T00:03:18.007Z,3.08
2019-05-03T00:05:42.439Z,3.72
2019-05-03T00:07:44.685Z,3.60
2019-05-03T00:09:46.818Z,3.15
2019-05-03T00:11:49.243Z,3.52
2019-05-03T00:13:52.548Z,2.85
2019-05-03T00:16:21.898Z,3.12
2019-05-03T00:18:24.840Z,3.15
2019-05-03T00:20:27.020Z,3.20
2019-05-03T00:22:29.012Z,3.37
2019-05-03T00:24:32.115Z,3.27
2019-05-03T00:26:34.329Z,3.37
2019-05-03T00:28:36.738Z,3.47
2019-05-03T00:32:42.723Z,3.27
2019-05-03T00:34:47.490Z,3.62
2019-05-03T00:36:57.210Z,3.50
2019-05-03T00:39:21.697Z,3.58
2019-05-03T00:41:23.847Z,3.50
2019-05-03T00:43:26.211Z,3.47
2019-05-03T00:45:28.222Z,3.50
2019-05-03T00:47:30.310Z,3.40
2019-05-03T00:49:32.605Z,3.27
2019-05-03T00:51:34.652Z,3.75
2019-05-03T00:53:36.639Z,3.08
2019-05-03T00:55:38.908Z,3.65
2019-05-03T00:57:41.586Z,3.40
2019-05-03T00:59:43.752Z,3.87
2019-05-03T01:01:45.904Z,3.40
2019-05-03T01:03:48.205Z,3.27
2019-05-03T01:05:50.200Z,3.45
2019-05-03T01:07:53.532Z,3.12
2019-05-03T01:09:55.816Z,3.40
2019-05-03T01:11:57.862Z,3.40
2019-05-03T01:14:02.261Z,3.12
2019-05-03T01:16:08.452Z,3.37
2019-05-03T01:18:13.091Z,3.40
2019-05-03T01:20:15.217Z,3.00
2019-05-03T01:22:17.466Z,3.60
2019-05-03T01:24:21.618Z,3.10
2019-05-03T01:26:23.756Z,3.20
2019-05-03T01:28:27.087Z,2.52
2019-05-03T01:30:29.116Z,3.20
2019-05-03T01:32:32.948Z,2.67
2019-05-03T01:34:37.169Z,2.90
2019-05-03T01:36:39.208Z,2.40
2019-05-03T01:38:42.376Z,4.12
2019-05-03T01:40:44.562Z,2.62
2019-05-03T01:42:46.743Z,3.00
2019-05-03T01:44:48.861Z,2.65
2019-05-03T01:46:53.032Z,2.80
2019-05-03T01:49:07.971Z,3.12
2019-05-03T01:51:32.849Z,2.92
2019-05-03T01:53:35.609Z,3.20
2019-05-03T01:55:52.058Z,2.80
2019-05-03T01:57:54.377Z,2.70
2019-05-03T02:02:07.277Z,2.62
2019-05-03T02:04:17.160Z,2.65
2019-05-03T02:06:19.334Z,3.37
2019-05-03T02:08:22.041Z,2.80
2019-05-03T02:10:24.467Z,2.75
2019-05-03T02:14:28.544Z,2.27
2019-05-03T02:16:32.384Z,2.25
2019-05-03T02:18:34.775Z,2.12
2019-05-03T02:20:37.212Z,2.62
2019-05-03T02:24:42.203Z,2.30
2019-05-03T02:26:44.389Z,3.05
2019-05-03T02:28:46.455Z,2.90
2019-05-03T02:30:48.899Z,2.87
2019-05-03T02:34:54.536Z,2.80
2019-05-03T02:36:57.648Z,2.42
2019-05-03T02:38:59.661Z,2.92
2019-05-03T02:41:02.882Z,3.27
2019-05-03T02:43:09.203Z,2.50
2019-05-03T02:45:17.682Z,2.30
2019-05-03T02:47:35.692Z,2.27
2019-05-03T02:49:42.592Z,2.90
2019-05-03T02:51:46.097Z,2.45
2019-05-03T02:53:48.630Z,2.67
2019-05-03T02:55:50.629Z,2.10
2019-05-03T02:57:52.956Z,2.12
2019-05-03T02:59:55.234Z,2.85
2019-05-03T03:03:59.782Z,2.00
2019-05-03T03:06:06.717Z,1.95
2019-05-03T03:08:08.728Z,2.00
2019-05-03T03:10:11.480Z,2.00
2019-05-03T03:12:15.245Z,1.95
2019-05-03T03:14:19.429Z,2.00
2019-05-03T03:16:25.103Z,1.90
2019-05-03T03:18:30.910Z,1.70
2019-05-03T03:20:36.503Z,1.85
2019-05-03T03:22:42.181Z,1.95
2019-05-03T03:24:48.233Z,1.95
2019-05-03T03:26:52.246Z,2.10
2019-05-03T03:29:00.626Z,2.12
2019-05-03T03:31:29.039Z,1.95
2019-05-03T03:33:31.310Z,1.62
2019-05-03T03:35:38.049Z,1.75
2019-05-03T03:37:40.051Z,1.92
2019-05-03T03:39:45.546Z,1.90
2019-05-03T03:41:47.687Z,1.55
2019-05-03T03:43:50.870Z,1.82
2019-05-03T03:45:55.691Z,2.00
2019-05-03T03:47:59.405Z,2.52
2019-05-03T03:50:05.922Z,1.80
2019-05-03T03:52:08.956Z,1.82
2019-05-03T03:54:18.062Z,1.80
2019-05-03T03:56:21.493Z,1.90
2019-05-03T03:58:26.717Z,1.67
2019-05-03T04:00:27.748Z,1.70
2019-05-03T04:02:29.972Z,1.50
2019-05-03T04:04:32.198Z,2.00
2019-05-03T04:06:40.394Z,2.92
2019-05-03T04:08:45.133Z,1.70
2019-05-03T04:10:46.704Z,2.87
2019-05-03T04:12:49.961Z,1.70
2019-05-03T04:15:05.889Z,1.85
2019-05-03T04:17:26.154Z,1.62
2019-05-03T04:19:31.299Z,1.85
2019-05-03T04:21:35.823Z,1.80
2019-05-03T04:23:37.634Z,1.72
2019-05-03T04:25:39.884Z,1.90
2019-05-03T04:27:42.526Z,1.90
2019-05-03T04:29:45.353Z,1.98
2019-05-03T04:31:47.775Z,1.90
2019-05-03T04:33:50.051Z,1.60
2019-05-03T04:35:52.084Z,2.20
2019-05-03T04:37:55.821Z,1.75
2019-05-03T04:39:58.397Z,1.70
2019-05-03T04:42:00.620Z,1.67
2019-05-03T04:44:02.917Z,1.62
2019-05-03T04:46:16.485Z,1.72
2019-05-03T04:48:18.882Z,1.40
2019-05-03T04:50:20.890Z,1.82
2019-05-03T04:52:25.868Z,2.15
2019-05-03T04:54:47.215Z,1.60
2019-05-03T04:56:49.386Z,1.40
2019-05-03T04:58:51.755Z,1.92
2019-05-03T05:00:55.376Z,2.02
2019-05-03T05:02:57.521Z,2.05
2019-05-03T05:05:00.173Z,1.82
2019-05-03T05:07:02.413Z,1.55
2019-05-03T05:09:06.024Z,1.85
2019-05-03T05:11:10.513Z,1.70
2019-05-03T05:13:12.417Z,1.80
2019-05-03T05:15:15.698Z,1.70
2019-05-03T05:17:27.905Z,1.85
2019-05-03T05:19:46.389Z,1.80
2019-05-03T05:21:52.146Z,1.70
2019-05-03T05:23:59.598Z,1.60
2019-05-03T05:26:09.169Z,1.70
2019-05-03T05:28:26.489Z,1.77
2019-05-03T05:30:28.893Z,1.50
2019-05-03T05:34:34.786Z,1.45
2019-05-03T05:36:37.266Z,1.57
2019-05-03T05:38:39.259Z,1.12
2019-05-03T05:40:41.286Z,1.42
2019-05-03T05:42:45.376Z,1.27
2019-05-03T05:44:47.620Z,1.62
2019-05-03T05:47:18.828Z,1.30
2019-05-03T05:49:44.365Z,1.30
2019-05-03T05:51:46.492Z,1.30
2019-05-03T05:53:48.710Z,1.60
2019-05-03T05:57:40.574Z,1.30
2019-05-03T05:59:48.561Z,1.30
2019-05-03T06:01:55.597Z,1.17
2019-05-03T06:03:58.072Z,1.07
2019-05-03T06:08:15.378Z,1.10
2019-05-03T06:10:24.847Z,1.15
2019-05-03T06:12:55.450Z,1.22
2019-05-03T06:15:01.318Z,1.22
2019-05-03T06:17:21.575Z,1.00
2019-05-03T06:19:46.012Z,1.05
2019-05-03T06:22:02.712Z,1.25
2019-05-03T06:24:11.604Z,1.15
2019-05-03T06:26:31.753Z,1.10
2019-05-03T06:28:35.297Z,1.20
2019-05-03T06:30:57.379Z,1.42
2019-05-03T06:32:59.437Z,1.50
2019-05-03T06:35:01.513Z,1.05
2019-05-03T06:37:07.455Z,1.25
2019-05-03T06:39:10.183Z,1.07
2019-05-03T06:41:12.276Z,1.30
2019-05-03T06:43:15.744Z,1.05
2019-05-03T06:45:17.980Z,1.22
2019-05-03T06:47:20.289Z,1.67
2019-05-03T06:49:25.358Z,1.30
2019-05-03T06:51:27.420Z,1.30
2019-05-03T06:53:29.426Z,1.50
2019-05-03T06:55:32.172Z,1.40
2019-05-03T06:57:35.440Z,1.20
2019-05-03T06:59:45.171Z,1.47
2019-05-03T07:02:05.503Z,1.50
2019-05-03T07:04:34.709Z,1.45
2019-05-03T07:07:05.121Z,1.72
2019-05-03T07:09:27.563Z,3.02
2019-05-03T07:11:29.659Z,3.17
2019-05-03T07:13:31.696Z,1.67
2019-05-03T07:15:35.120Z,1.20
2019-05-03T07:17:37.241Z,1.30
2019-05-03T07:19:39.337Z,1.30
2019-05-03T07:21:41.772Z,1.25
2019-05-03T07:23:45.191Z,1.05
2019-05-03T07:25:48.412Z,0.88
2019-05-03T07:27:50.528Z,1.00
2019-05-03T07:29:52.520Z,1.10
2019-05-03T07:31:54.928Z,1.25
2019-05-03T07:33:57.427Z,1.27
2019-05-03T07:35:59.861Z,1.22
2019-05-03T07:38:01.913Z,1.00
2019-05-03T07:40:04.759Z,1.20
2019-05-03T07:42:07.857Z,1.00
2019-05-03T07:44:10.244Z,1.45
2019-05-03T07:46:14.535Z,1.10
2019-05-03T07:48:16.396Z,1.27
2019-05-03T07:50:18.422Z,1.62
2019-05-03T07:52:20.697Z,1.12
2019-05-03T07:54:24.685Z,1.32
2019-05-03T07:56:31.055Z,1.00
2019-05-03T07:58:35.221Z,1.17
2019-05-03T08:00:37.290Z,1.62
2019-05-03T08:02:39.669Z,1.30
2019-05-03T08:04:42.091Z,1.40
2019-05-03T08:06:44.932Z,1.30
2019-05-03T08:08:46.943Z,1.30
2019-05-03T08:10:49.320Z,1.10
2019-05-03T08:14:54.987Z,1.10
2019-05-03T08:16:57.325Z,1.82
2019-05-03T08:18:59.323Z,1.30
2019-05-03T08:21:01.308Z,1.30
2019-05-03T08:23:05.297Z,1.27
2019-05-03T08:25:08.875Z,1.10
2019-05-03T08:29:17.022Z,1.42
2019-05-03T08:31:48.448Z,1.40
2019-05-03T08:34:06.582Z,1.30
2019-05-03T08:36:09.024Z,1.15
2019-05-03T08:38:11.109Z,1.55
2019-05-03T08:40:15.611Z,1.45
2019-05-03T08:42:25.423Z,1.35
2019-05-03T08:44:27.639Z,1.02
2019-05-03T08:46:29.688Z,1.40
2019-05-03T08:48:31.932Z,1.15
2019-05-03T08:50:34.760Z,1.25
2019-05-03T08:52:37.097Z,1.22
2019-05-03T08:54:39.470Z,1.50
2019-05-03T08:56:41.489Z,1.42
2019-05-03T08:58:45.085Z,1.75
2019-05-03T09:00:47.205Z,1.50
2019-05-03T09:02:49.212Z,1.22
2019-05-03T09:04:51.350Z,1.42
2019-05-03T09:06:55.117Z,1.55
2019-05-03T09:08:57.403Z,1.70
2019-05-03T09:13:11.940Z,1.80
2019-05-03T09:15:15.207Z,1.98
2019-05-03T09:17:17.260Z,1.52
2019-05-03T09:19:19.578Z,1.40
2019-05-03T09:21:21.789Z,1.70
2019-05-03T09:23:25.963Z,1.22
2019-05-03T09:25:29.941Z,1.52
2019-05-03T09:27:31.962Z,1.35
2019-05-03T09:29:41.900Z,1.90
2019-05-03T09:31:38.445Z,1.50
2019-05-03T09:33:40.611Z,1.50
2019-05-03T09:35:42.869Z,1.47
2019-05-03T09:37:45.279Z,1.60
2019-05-03T09:39:47.274Z,1.92
2019-05-03T09:41:49.271Z,1.45
2019-05-03T09:43:51.800Z,1.20
2019-05-03T09:50:01.933Z,1.55
2019-05-03T09:52:08.054Z,0.90
2019-05-03T09:54:18.811Z,1.20
2019-05-03T09:56:53.395Z,1.10
2019-05-03T09:58:46.103Z,1.22
2019-05-03T10:00:49.093Z,2.10
2019-05-03T10:02:51.198Z,1.32
2019-05-03T10:04:55.236Z,1.47
2019-05-03T10:06:57.196Z,1.62
2019-05-03T10:08:59.425Z,1.42
2019-05-03T10:11:10.465Z,1.30
2019-05-03T10:13:21.305Z,1.90
2019-05-03T10:15:32.654Z,2.02
2019-05-03T10:17:55.495Z,1.20
2019-05-03T10:19:57.719Z,1.37
2019-05-03T10:22:00.029Z,1.52
2019-05-03T10:24:02.067Z,1.50
2019-05-03T10:26:05.309Z,1.52
2019-05-03T10:28:07.656Z,1.60
2019-05-03T10:30:13.275Z,1.42
2019-05-03T10:32:25.397Z,1.00
2019-05-03T10:34:27.666Z,1.40
2019-05-03T10:36:29.680Z,1.52
2019-05-03T10:38:31.713Z,1.67
2019-05-03T10:40:35.725Z,1.10
2019-05-03T10:42:38.314Z,1.35
2019-05-03T10:44:40.407Z,1.55
2019-05-03T10:46:42.801Z,1.42
2019-05-03T10:50:50.727Z,1.20
2019-05-03T10:52:58.517Z,1.40
2019-05-03T10:55:00.634Z,1.32
2019-05-03T10:57:15.767Z,1.60
2019-05-03T10:59:19.027Z,1.40
2019-05-03T11:01:28.090Z,1.40
2019-05-03T11:03:30.337Z,1.82
2019-05-03T11:05:34.728Z,1.12
2019-05-03T11:07:36.733Z,1.40
2019-05-03T11:09:48.726Z,2.02
2019-05-03T11:11:45.610Z,1.67
2019-05-03T11:13:47.822Z,1.40
2019-05-03T11:15:50.260Z,2.35
2019-05-03T11:21:57.459Z,2.20
2019-05-03T11:26:01.749Z,1.57
2019-05-03T11:28:09.944Z,1.52
2019-05-03T11:30:12.397Z,1.50
2019-05-03T11:34:38.578Z,1.20
2019-05-03T11:37:09.259Z,1.37
2019-05-03T11:39:14.466Z,1.17
2019-05-03T11:41:29.183Z,1.20
2019-05-03T11:43:24.559Z,1.60
2019-05-03T11:45:26.507Z,1.17
2019-05-03T11:47:28.628Z,1.42
2019-05-03T11:49:31.065Z,1.67
2019-05-03T11:53:36.694Z,1.25
2019-05-03T11:55:38.824Z,1.10
2019-05-03T11:57:40.942Z,1.30
2019-05-03T11:59:45.231Z,1.30
2019-05-03T12:02:02.270Z,1.60
2019-05-03T12:04:05.151Z,1.50
2019-05-03T12:06:07.115Z,1.67
2019-05-03T12:08:09.274Z,1.45
2019-05-03T12:10:26.834Z,1.47
2019-05-03T12:12:29.372Z,1.40
2019-05-03T12:14:31.020Z,1.55
2019-05-03T12:17:10.339Z,1.47
2019-05-03T12:18:49.015Z,1.50
2019-05-03T12:20:42.977Z,1.62
2019-05-03T12:22:47.005Z,1.30
2019-05-03T12:24:50.237Z,1.47
2019-05-03T12:26:52.559Z,1.42
2019-05-03T12:28:54.838Z,1.35
2019-05-03T12:30:56.865Z,1.30
2019-05-03T12:32:59.103Z,1.65
2019-05-03T12:35:01.176Z,1.70
2019-05-03T12:37:05.165Z,1.85
2019-05-03T12:39:23.116Z,1.62
2019-05-03T12:41:11.845Z,1.50
2019-05-03T12:43:14.973Z,1.65
2019-05-03T12:45:17.205Z,1.72
2019-05-03T12:47:22.130Z,1.37
2019-05-03T12:49:24.948Z,1.52
2019-05-03T12:51:27.465Z,1.80
2019-05-03T12:55:31.008Z,1.77
2019-05-03T12:57:34.467Z,1.25
2019-05-03T12:59:52.342Z,1.32
2019-05-03T13:01:59.772Z,1.35
2019-05-03T13:04:12.330Z,2.05
2019-05-03T13:06:14.949Z,1.47
2019-05-03T13:08:41.511Z,2.37
2019-05-03T13:10:46.773Z,1.70
2019-05-03T13:12:53.173Z,1.45
2019-05-03T13:14:54.209Z,1.42
2019-05-03T13:16:56.555Z,1.70
2019-05-03T13:18:58.676Z,1.85
2019-05-03T13:21:01.077Z,1.98
2019-05-03T13:23:05.317Z,1.75
2019-05-03T13:25:08.170Z,1.25
2019-05-03T13:27:10.352Z,1.30
2019-05-03T13:29:12.574Z,1.42
2019-05-03T13:31:16.194Z,1.65
2019-05-03T13:33:18.454Z,1.20
2019-05-03T13:35:20.952Z,1.30
2019-05-03T13:39:26.825Z,1.50
2019-05-03T13:41:29.096Z,1.20
2019-05-03T13:43:31.354Z,1.37
2019-05-03T13:45:35.354Z,1.40
2019-05-03T13:47:37.648Z,1.25
2019-05-03T13:49:39.724Z,1.25
2019-05-03T13:51:41.812Z,1.10
2019-05-03T13:53:44.120Z,1.10
2019-05-03T13:57:48.440Z,1.22
2019-05-03T13:59:50.714Z,1.50
2019-05-03T14:01:54.574Z,1.50
2019-05-03T14:03:56.741Z,1.30
2019-05-03T14:05:58.951Z,1.60
2019-05-03T14:08:01.016Z,1.45
2019-05-03T14:10:03.934Z,1.32
2019-05-03T14:12:07.582Z,1.62
2019-05-03T14:14:09.959Z,1.57
2019-05-03T14:16:12.088Z,1.72
2019-05-03T14:18:15.393Z,1.20
2019-05-03T14:20:46.553Z,1.40
2019-05-03T14:22:49.819Z,1.57
2019-05-03T14:24:52.190Z,1.35
2019-05-03T14:26:55.140Z,1.65
2019-05-03T14:28:57.430Z,1.70
2019-05-03T14:30:59.739Z,1.45
2019-05-03T14:33:01.725Z,1.70
2019-05-03T14:35:04.176Z,1.60
2019-05-03T14:39:09.881Z,1.80
2019-05-03T14:41:14.945Z,1.70
2019-05-03T14:43:17.021Z,1.35
2019-05-03T14:47:20.861Z,1.67
2019-05-03T14:49:25.340Z,1.30
2019-05-03T14:51:27.293Z,1.30
2019-05-03T14:53:29.310Z,1.72
2019-05-03T14:55:51.729Z,1.75
2019-05-03T14:58:01.840Z,1.45
2019-05-03T15:00:16.885Z,1.60
2019-05-03T15:02:24.668Z,1.20
2019-05-03T15:04:26.755Z,1.30
2019-05-03T15:06:28.792Z,1.50
2019-05-03T15:08:31.126Z,1.57
2019-05-03T15:10:35.077Z,1.40
2019-05-03T15:12:37.072Z,1.50
2019-05-03T15:14:39.298Z,1.55
2019-05-03T15:16:41.318Z,1.57
2019-05-03T15:18:45.335Z,1.67
2019-05-03T15:20:48.817Z,1.57
2019-05-03T15:24:54.585Z,1.50
2019-05-03T15:26:57.116Z,1.50
2019-05-03T15:29:00.189Z,1.87
2019-05-03T15:31:04.429Z,1.62
2019-05-03T15:33:06.607Z,1.40
2019-05-03T15:37:10.799Z,1.50
2019-05-03T15:39:15.265Z,1.77
2019-05-03T15:41:17.658Z,1.90
2019-05-03T15:43:35.639Z,1.67
2019-05-03T15:45:58.090Z,1.45
2019-05-03T15:48:24.597Z,1.82
2019-05-03T15:50:26.903Z,1.77
2019-05-03T15:52:29.081Z,2.17
2019-05-03T15:54:31.160Z,1.67
2019-05-03T15:56:33.448Z,1.55
2019-05-03T15:58:35.972Z,1.40
2019-05-03T16:02:40.197Z,3.15
2019-05-03T16:04:42.460Z,1.77
2019-05-03T16:06:44.896Z,1.30
2019-05-03T16:10:49.166Z,1.60
2019-05-03T16:12:51.193Z,1.40
2019-05-03T16:14:55.095Z,1.70
2019-05-03T16:16:58.144Z,1.98
2019-05-03T16:19:00.294Z,1.60
2019-05-03T16:21:05.021Z,1.20
2019-05-03T16:23:07.431Z,1.10
2019-05-03T16:25:09.862Z,1.27
2019-05-03T16:29:19.792Z,2.17
2019-05-03T16:31:24.865Z,1.40
2019-05-03T16:33:28.112Z,1.00
2019-05-03T16:35:30.914Z,1.35
2019-05-03T16:37:34.537Z,1.52
2019-05-03T16:39:36.787Z,1.60
2019-05-03T16:41:40.985Z,1.30
2019-05-03T16:43:43.031Z,1.20
2019-05-03T16:45:45.314Z,1.62
2019-05-03T16:47:47.686Z,1.20
2019-05-03T16:49:49.737Z,1.72
2019-05-03T16:51:51.780Z,2.25
2019-05-03T16:53:55.047Z,2.02
2019-05-03T16:55:57.472Z,2.27
2019-05-03T16:57:59.459Z,1.65
2019-05-03T17:00:01.901Z,1.37
2019-05-03T17:02:05.986Z,1.50
2019-05-03T17:07:07.159Z,1.98
2019-05-03T17:09:18.257Z,1.72
2019-05-03T17:11:24.240Z,2.00
2019-05-03T17:13:26.499Z,1.75
2019-05-03T17:15:28.998Z,2.00
2019-05-03T17:17:31.372Z,2.02
2019-05-03T17:19:35.092Z,1.98
2019-05-03T17:21:37.339Z,2.37
2019-05-03T17:23:40.438Z,2.10
2019-05-03T17:25:44.490Z,2.20
2019-05-03T17:27:46.603Z,1.80
2019-05-03T17:29:48.978Z,1.98
2019-05-03T17:31:51.527Z,1.98
2019-05-03T17:33:56.612Z,2.05
2019-05-03T17:35:58.668Z,2.58
2019-05-03T17:38:01.097Z,2.37
2019-05-03T17:42:39.447Z,1.95
2019-05-03T17:44:45.036Z,2.58
2019-05-03T17:46:47.027Z,2.20
2019-05-03T17:48:49.085Z,2.10
2019-05-03T17:50:51.462Z,2.50
2019-05-03T17:53:08.046Z,2.50
2019-05-03T17:55:32.804Z,2.33
2019-05-03T17:58:06.501Z,2.45
2019-05-03T18:00:28.568Z,2.02
2019-05-03T18:02:36.330Z,2.00
2019-05-03T18:05:05.250Z,2.02
2019-05-03T18:07:24.283Z,3.08
2019-05-03T18:09:29.982Z,1.85
2019-05-03T18:11:37.063Z,2.40
2019-05-03T18:13:39.263Z,2.10
2019-05-03T18:15:41.278Z,2.30
2019-05-03T18:17:44.492Z,2.00
2019-05-03T18:19:49.203Z,2.30
2019-05-03T18:21:51.255Z,2.20
2019-05-03T18:23:54.522Z,2.02
2019-05-03T18:25:57.020Z,2.00
2019-05-03T18:27:59.015Z,1.90
2019-05-03T18:30:01.566Z,2.42
2019-05-03T18:32:05.358Z,2.22
2019-05-03T18:34:18.684Z,2.08
2019-05-03T18:36:12.053Z,2.00
2019-05-03T18:38:14.915Z,2.00
2019-05-03T18:40:17.136Z,1.70
2019-05-03T18:42:27.772Z,2.17
2019-05-03T18:44:40.956Z,2.10
2019-05-03T18:46:55.120Z,2.30
2019-05-03T18:48:57.598Z,2.50
2019-05-03T18:51:00.018Z,2.45
2019-05-03T18:55:04.495Z,1.75
2019-05-03T18:57:07.848Z,2.40
2019-05-03T18:59:09.991Z,2.52
2019-05-03T19:01:14.763Z,2.17
2019-05-03T19:03:16.987Z,2.00
2019-05-03T19:05:20.178Z,2.20
2019-05-03T19:07:34.843Z,2.37
2019-05-03T19:09:57.074Z,1.92
2019-05-03T19:12:17.365Z,2.42
2019-05-03T19:14:20.604Z,2.00
2019-05-03T19:16:40.921Z,2.12
2019-05-03T19:18:43.025Z,1.90
2019-05-03T19:20:45.574Z,2.27
2019-05-03T19:22:48.052Z,2.10
2019-05-03T19:26:54.284Z,1.90
2019-05-03T19:28:56.735Z,1.90
2019-05-03T19:31:00.058Z,2.35
2019-05-03T19:35:07.468Z,2.40
2019-05-03T19:37:09.769Z,1.72
2019-05-03T19:39:14.352Z,1.60
2019-05-03T19:41:17.226Z,1.70
2019-05-03T19:43:19.315Z,2.33
2019-05-03T19:45:21.747Z,2.00
2019-05-03T19:47:26.933Z,2.70
2019-05-03T19:49:29.026Z,2.22
2019-05-03T19:51:31.326Z,2.55
2019-05-03T19:53:54.928Z,2.37
2019-05-03T19:55:57.061Z,2.45
2019-05-03T19:57:59.656Z,2.55
2019-05-03T20:00:02.216Z,2.95
2019-05-03T20:02:15.458Z,2.02
2019-05-03T20:04:35.726Z,3.02
2019-05-03T20:06:47.232Z,2.30
2019-05-03T20:08:56.120Z,2.37
2019-05-03T20:11:15.059Z,2.35
2019-05-03T20:13:17.582Z,2.25
2019-05-03T20:15:19.616Z,2.15
2019-05-03T20:17:22.191Z,2.33
2019-05-03T20:19:25.674Z,2.58
2019-05-03T20:21:27.977Z,2.20
2019-05-03T20:23:30.214Z,2.10
2019-05-03T20:25:32.423Z,1.98
2019-05-03T20:27:35.230Z,2.25
2019-05-03T20:29:38.850Z,2.20
2019-05-03T20:33:42.807Z,2.25
2019-05-03T20:35:45.288Z,2.40
2019-05-03T20:37:47.412Z,2.67
2019-05-03T20:39:49.535Z,3.20
2019-05-03T20:41:51.643Z,2.80
2019-05-03T20:44:08.114Z,2.17
2019-05-03T20:46:33.045Z,2.92
2019-05-03T20:48:36.474Z,2.70
2019-05-03T20:50:38.609Z,2.85
2019-05-03T20:52:40.768Z,2.47
2019-05-03T20:54:44.798Z,2.60
2019-05-03T20:56:47.254Z,2.45
2019-05-03T20:58:49.278Z,2.58
2019-05-03T21:00:51.512Z,2.10
2019-05-03T21:02:56.936Z,2.35
2019-05-03T21:04:57.625Z,2.60
2019-05-03T21:06:59.712Z,2.70
2019-05-03T21:09:01.734Z,2.33
2019-05-03T21:11:08.462Z,2.42
2019-05-03T21:13:10.904Z,2.30
2019-05-03T21:17:45.096Z,2.40
2019-05-03T21:20:09.863Z,2.62
2019-05-03T21:22:16.150Z,2.80
2019-05-03T21:24:41.631Z,2.60
2019-05-03T21:26:45.149Z,2.05
2019-05-03T21:28:47.761Z,1.90
2019-05-03T21:32:51.470Z,2.33
2019-05-03T21:34:55.518Z,2.42
2019-05-03T21:36:58.036Z,2.22
2019-05-03T21:39:00.344Z,2.37
2019-05-03T21:41:02.461Z,2.25
2019-05-03T21:43:04.876Z,2.40
2019-05-03T21:45:08.215Z,2.30
2019-05-03T21:47:35.018Z,2.17
2019-05-03T21:49:42.139Z,2.47
2019-05-03T21:51:44.982Z,2.30
2019-05-03T21:53:47.250Z,2.12
2019-05-03T21:55:49.311Z,2.47
2019-05-03T21:57:51.551Z,2.30
2019-05-03T21:59:54.999Z,2.45
2019-05-03T22:01:57.315Z,1.95
2019-05-03T22:03:59.679Z,2.50
2019-05-03T22:06:01.745Z,2.10
2019-05-03T22:08:04.544Z,2.00
2019-05-03T22:10:07.098Z,2.30
2019-05-03T22:12:09.192Z,2.05
2019-05-03T22:14:18.808Z,2.62
2019-05-03T22:16:35.613Z,2.37
2019-05-03T22:18:37.903Z,2.47
2019-05-03T22:20:58.197Z,2.08
2019-05-03T22:23:06.518Z,2.25
2019-05-03T22:25:09.225Z,1.52
2019-05-03T22:27:15.763Z,2.10
2019-05-03T22:29:17.988Z,1.95
2019-05-03T22:31:20.036Z,1.82
2019-05-03T22:33:22.056Z,1.90
2019-05-03T22:35:25.097Z,1.77
2019-05-03T22:37:27.193Z,1.98
2019-05-03T22:39:29.306Z,1.80
2019-05-03T22:41:31.683Z,2.00
2019-05-03T22:45:37.374Z,1.85
2019-05-03T22:47:39.714Z,2.20
2019-05-03T22:49:41.713Z,1.92
2019-05-03T22:51:45.149Z,2.47
2019-05-03T22:53:47.369Z,2.10
2019-05-03T22:55:49.396Z,2.67
2019-05-03T22:57:51.606Z,2.60
2019-05-03T22:59:53.815Z,2.30
2019-05-03T23:01:55.881Z,2.58
2019-05-03T23:03:58.386Z,2.30
2019-05-03T23:08:02.206Z,2.00
2019-05-03T23:10:04.689Z,2.10
2019-05-03T23:14:08.944Z,2.15
2019-05-03T23:18:13.203Z,1.55
2019-05-03T23:22:39.391Z,2.00
2019-05-03T23:24:41.406Z,1.98
2019-05-03T23:26:45.161Z,1.77
2019-05-03T23:28:47.643Z,1.85
2019-05-03T23:30:49.811Z,2.00
2019-05-03T23:34:54.423Z,1.87
2019-05-03T23:36:56.845Z,1.80
2019-05-03T23:38:58.939Z,1.77
2019-05-03T23:41:00.966Z,1.47
2019-05-03T23:43:05.080Z,1.70
2019-05-03T23:45:07.412Z,1.42
2019-05-03T23:47:34.494Z,1.42
2019-05-03T23:50:16.346Z,1.90
2019-05-03T23:52:35.251Z,1.80
2019-05-03T23:54:37.470Z,1.47
2019-05-03T23:56:39.785Z,1.45
2019-05-03T23:58:41.965Z,2.27
